createdAt,value
2023-02-04T00:09:25.265Z,3.35
2023-02-04T00:24:25.771Z,3.32
2023-02-04T00:39:26.385Z,3.05
2023-02-04T00:54:27.000Z,2.78
2023-02-04T01:09:28.162Z,2.52
2023-02-04T01:24:29.545Z,2.49
2023-02-04T01:39:31.513Z,2.28
2023-02-04T01:54:32.122Z,2.02
2023-02-04T02:09:32.736Z,1.73
2023-02-04T02:24:33.325Z,1.59
2023-02-04T02:39:33.961Z,1.52
2023-02-04T02:54:34.556Z,1.24
2023-02-04T03:09:34.802Z,1.14
2023-02-04T03:24:34.794Z,1.11
2023-02-04T03:39:44.261Z,0.88
2023-02-04T03:54:45.280Z,0.79
2023-02-04T04:09:45.889Z,0.78
2023-02-04T04:24:46.127Z,0.87
2023-02-04T04:39:46.699Z,0.58
2023-02-04T04:54:46.767Z,0.39
2023-02-04T05:09:56.281Z,0.32
2023-02-04T05:24:57.853Z,0.17
2023-02-04T05:39:58.044Z,-0.03
2023-02-04T05:54:58.189Z,-0.07
2023-02-04T06:10:00.337Z,-0.01
2023-02-04T06:25:03.463Z,0.04
2023-02-04T06:40:04.520Z,-0.08
2023-02-04T06:55:04.963Z,-0.46
2023-02-04T07:10:05.420Z,-0.54
2023-02-04T07:25:07.878Z,-0.60
2023-02-04T07:40:08.699Z,-0.52
2023-02-04T07:55:09.214Z,0.18
2023-02-04T08:10:10.826Z,0.58
2023-02-04T08:25:11.487Z,1.66
2023-02-04T08:40:11.762Z,2.82
2023-02-04T08:55:12.314Z,3.91
2023-02-04T09:10:12.925Z,4.73
2023-02-04T09:25:13.523Z,5.61
2023-02-04T09:40:14.104Z,5.91
2023-02-04T09:55:15.130Z,6.01
2023-02-04T10:10:15.259Z,6.66
2023-02-04T10:25:15.862Z,6.61
2023-02-04T10:40:16.447Z,7.21
2023-02-04T10:55:16.591Z,7.67
2023-02-04T11:10:17.662Z,6.97
2023-02-04T11:25:19.174Z,6.28
2023-02-04T11:40:19.757Z,5.42
2023-02-04T11:55:19.699Z,6.17
2023-02-04T12:10:20.272Z,5.60
2023-02-04T12:25:20.848Z,5.72
2023-02-04T12:40:21.431Z,5.33
2023-02-04T12:55:22.074Z,5.13
2023-02-04T13:10:22.645Z,5.36
2023-02-04T13:25:29.494Z,4.70
2023-02-04T13:40:30.531Z,5.48
2023-02-04T13:55:31.654Z,4.94
2023-02-04T14:10:32.785Z,4.41
2023-02-04T14:25:33.987Z,3.84
2023-02-04T14:40:34.839Z,3.69
2023-02-04T14:55:35.614Z,3.54
2023-02-04T15:10:36.207Z,3.23
2023-02-04T15:25:37.792Z,2.69
2023-02-04T15:40:37.505Z,2.38
2023-02-04T15:55:38.138Z,2.00
2023-02-04T16:10:38.720Z,1.60
2023-02-04T16:25:39.726Z,1.08
2023-02-04T16:40:39.893Z,0.41
2023-02-04T16:55:40.513Z,-0.25
2023-02-04T17:10:41.525Z,-0.76
2023-02-04T17:25:41.795Z,-1.07
2023-02-04T17:40:42.239Z,-1.35
2023-02-04T17:55:42.466Z,-1.54
2023-02-04T18:10:43.494Z,-1.64
2023-02-04T18:25:43.726Z,-1.74
2023-02-04T18:40:43.896Z,-1.95
2023-02-04T18:55:44.514Z,-1.98
2023-02-04T19:10:45.181Z,-2.16
2023-02-04T19:25:45.289Z,-2.27
2023-02-04T19:40:45.880Z,-2.27
2023-02-04T19:55:46.925Z,-2.45
2023-02-04T20:10:47.529Z,-2.63
2023-02-04T20:25:47.468Z,-2.91
2023-02-04T20:40:47.995Z,-3.18
2023-02-04T20:55:48.549Z,-3.53
2023-02-04T21:10:49.128Z,-4.03
2023-02-04T21:25:49.335Z,-4.17
2023-02-04T21:40:50.352Z,-4.36
2023-02-04T21:55:50.969Z,-4.65
2023-02-04T22:10:50.626Z,-4.65
2023-02-04T22:25:51.285Z,-4.61
2023-02-04T22:40:51.859Z,-4.65
2023-02-04T22:55:52.495Z,-4.85
2023-02-04T23:10:53.089Z,-4.83
2023-02-04T23:25:54.137Z,-4.72
2023-02-04T23:40:55.366Z,-4.77
2023-02-04T23:55:55.978Z,-4.96
